createdAt,value
2024-02-08T00:00:33.102Z,3.50
2024-02-08T00:03:21.155Z,3.60
2024-02-08T00:05:49.228Z,2.90
2024-02-08T00:08:17.353Z,3.00
2024-02-08T00:10:45.576Z,3.00
2024-02-08T00:13:14.425Z,3.00
2024-02-08T00:15:42.828Z,3.70
2024-02-08T00:18:10.974Z,2.80
2024-02-08T00:20:39.097Z,2.80
2024-02-08T00:23:09.565Z,3.00
2024-02-08T00:25:37.807Z,2.80
2024-02-08T00:28:06.013Z,2.90
2024-02-08T00:30:34.116Z,3.10
2024-02-08T00:33:02.354Z,2.80
2024-02-08T00:35:30.435Z,3.10
2024-02-08T00:37:58.577Z,2.90
2024-02-08T00:40:26.790Z,3.10
2024-02-08T00:42:54.945Z,3.10
2024-02-08T00:45:23.798Z,3.30
2024-02-08T00:47:56.027Z,2.90
2024-02-08T00:50:24.686Z,3.30
2024-02-08T00:52:56.247Z,2.90
2024-02-08T00:55:25.516Z,3.00
2024-02-08T00:57:55.604Z,3.20
2024-02-08T01:00:23.732Z,2.90
2024-02-08T01:02:51.809Z,2.90
2024-02-08T01:05:22.478Z,3.10
2024-02-08T01:10:18.736Z,3.10
2024-02-08T01:12:47.017Z,2.90
2024-02-08T01:15:16.834Z,2.90
2024-02-08T01:17:45.077Z,3.10
2024-02-08T01:20:19.387Z,3.20
2024-02-08T01:22:47.483Z,3.10
2024-02-08T01:25:16.194Z,2.80
2024-02-08T01:27:45.054Z,3.50
2024-02-08T01:30:15.127Z,3.10
2024-02-08T01:32:43.306Z,3.10
2024-02-08T01:35:23.553Z,3.30
2024-02-08T01:37:52.762Z,2.80
2024-02-08T01:40:22.361Z,2.90
2024-02-08T01:42:58.898Z,2.90
2024-02-08T01:45:36.155Z,2.70
2024-02-08T01:48:11.625Z,3.70
2024-02-08T01:51:01.820Z,3.00
2024-02-08T01:53:30.748Z,3.50
2024-02-08T01:56:02.548Z,3.10
2024-02-08T01:58:32.816Z,3.50
2024-02-08T02:01:02.055Z,3.70
2024-02-08T02:03:33.345Z,3.70
2024-02-08T02:06:02.111Z,3.60
2024-02-08T02:08:34.609Z,3.40
2024-02-08T02:11:23.910Z,3.50
2024-02-08T02:13:53.043Z,4.00
2024-02-08T02:16:24.545Z,3.40
2024-02-08T02:18:52.755Z,3.80
2024-02-08T02:21:22.611Z,4.00
2024-02-08T02:23:53.493Z,3.80
2024-02-08T02:26:22.377Z,3.90
2024-02-08T02:28:52.440Z,4.10
2024-02-08T02:31:23.343Z,3.90
2024-02-08T02:33:55.174Z,3.70
2024-02-08T02:36:23.604Z,4.10
2024-02-08T02:38:53.043Z,4.10
2024-02-08T02:41:26.758Z,4.50
2024-02-08T02:43:55.084Z,4.50
2024-02-08T02:46:23.756Z,4.30
2024-02-08T02:48:52.194Z,4.40
2024-02-08T02:51:21.101Z,4.20
2024-02-08T02:53:49.147Z,4.70
2024-02-08T02:56:21.054Z,4.60
2024-02-08T02:58:49.307Z,4.50
2024-02-08T03:01:17.589Z,4.40
2024-02-08T03:03:48.758Z,3.80
2024-02-08T03:06:17.389Z,4.30
2024-02-08T03:08:46.995Z,4.20
2024-02-08T03:11:16.039Z,3.80
2024-02-08T03:13:47.505Z,4.00
2024-02-08T03:16:16.468Z,4.50
2024-02-08T03:18:47.821Z,4.20
2024-02-08T03:21:19.623Z,4.20
2024-02-08T03:23:49.302Z,4.10
2024-02-08T03:26:18.129Z,4.10
2024-02-08T03:28:48.063Z,4.00
2024-02-08T03:31:16.308Z,4.40
2024-02-08T03:33:45.535Z,3.40
2024-02-08T03:36:13.902Z,3.80
2024-02-08T03:38:42.028Z,4.10
2024-02-08T03:41:10.148Z,3.90
2024-02-08T03:43:39.844Z,4.40
2024-02-08T03:46:09.149Z,3.90
2024-02-08T03:48:41.712Z,4.00
2024-02-08T03:51:12.291Z,3.70
2024-02-08T03:53:40.498Z,3.50
2024-02-08T03:56:08.718Z,3.80
2024-02-08T03:58:38.010Z,4.10
2024-02-08T04:01:10.181Z,4.30
2024-02-08T04:04:03.202Z,3.40
2024-02-08T04:06:51.352Z,3.60
2024-02-08T04:09:35.177Z,4.00
2024-02-08T04:12:22.810Z,4.00
2024-02-08T04:15:09.422Z,4.10
2024-02-08T04:17:56.305Z,3.70
2024-02-08T04:20:42.884Z,3.30
2024-02-08T04:23:32.053Z,3.10
2024-02-08T04:26:22.896Z,3.10
2024-02-08T04:29:13.307Z,3.10
2024-02-08T04:32:00.060Z,3.20
2024-02-08T04:34:46.674Z,3.10
2024-02-08T04:37:33.241Z,2.90
2024-02-08T04:40:19.913Z,3.90
2024-02-08T04:43:06.579Z,3.30
2024-02-08T04:45:53.061Z,3.80
2024-02-08T04:48:39.941Z,3.40
2024-02-08T04:51:31.052Z,3.90
2024-02-08T04:53:59.961Z,3.50
2024-02-08T04:56:29.934Z,3.10
2024-02-08T04:59:20.127Z,3.10
2024-02-08T05:01:48.316Z,3.00
2024-02-08T05:04:22.606Z,2.50
2024-02-08T05:06:51.311Z,2.70
2024-02-08T05:09:21.327Z,2.10
2024-02-08T05:11:50.737Z,2.40
2024-02-08T05:14:24.183Z,2.50
2024-02-08T05:16:58.661Z,2.30
2024-02-08T05:19:28.361Z,2.50
2024-02-08T05:22:01.217Z,2.40
2024-02-08T05:24:32.211Z,2.60
2024-02-08T05:27:00.789Z,2.30
2024-02-08T05:29:30.029Z,2.40
2024-02-08T05:31:59.777Z,2.20
2024-02-08T05:34:28.302Z,2.30
2024-02-08T05:36:57.351Z,2.30
2024-02-08T05:39:27.309Z,2.40
2024-02-08T05:41:58.088Z,2.40
2024-02-08T05:44:34.191Z,2.90
2024-02-08T05:47:12.009Z,2.80
2024-02-08T05:49:51.098Z,2.60
2024-02-08T05:52:19.880Z,2.80
2024-02-08T05:54:50.261Z,2.80
2024-02-08T05:57:18.400Z,3.00
2024-02-08T05:59:47.295Z,2.60
2024-02-08T06:02:17.115Z,2.70
2024-02-08T06:04:52.720Z,2.90
2024-02-08T06:07:22.262Z,2.70
2024-02-08T06:09:56.782Z,2.50
2024-02-08T06:12:43.741Z,2.40
2024-02-08T06:15:27.380Z,2.50
2024-02-08T06:18:00.385Z,2.90
2024-02-08T06:20:35.692Z,2.70
2024-02-08T06:23:24.493Z,2.60
2024-02-08T06:26:25.422Z,2.70
2024-02-08T06:28:56.589Z,3.20
2024-02-08T06:31:42.384Z,2.80
2024-02-08T06:34:22.875Z,3.20
2024-02-08T06:37:00.434Z,3.20
2024-02-08T06:39:45.898Z,3.00
2024-02-08T06:42:52.553Z,2.80
2024-02-08T06:45:47.269Z,3.00
2024-02-08T06:48:36.563Z,3.30
2024-02-08T06:51:41.137Z,3.30
2024-02-08T06:54:27.857Z,3.10
2024-02-08T06:57:14.749Z,3.40
2024-02-08T07:00:01.633Z,2.60
2024-02-08T07:02:48.619Z,2.70
2024-02-08T07:05:35.461Z,3.00
2024-02-08T07:08:22.132Z,3.20
2024-02-08T07:11:08.783Z,2.60
2024-02-08T07:13:55.464Z,2.70
2024-02-08T07:16:41.936Z,2.60
2024-02-08T07:19:28.635Z,2.50
2024-02-08T07:22:15.612Z,2.60
2024-02-08T07:25:03.950Z,2.70
2024-02-08T07:27:51.123Z,3.60
2024-02-08T07:30:37.885Z,4.00
2024-02-08T07:33:24.666Z,3.20
2024-02-08T07:36:11.311Z,3.20
2024-02-08T07:38:55.262Z,2.80
2024-02-08T07:41:24.810Z,2.90
2024-02-08T07:43:58.838Z,3.10
2024-02-08T07:46:32.033Z,3.10
2024-02-08T07:49:07.193Z,3.00
2024-02-08T07:51:35.781Z,3.20
2024-02-08T07:54:11.917Z,3.00
2024-02-08T07:56:48.227Z,3.40
2024-02-08T07:59:28.491Z,2.70
2024-02-08T08:01:59.508Z,3.70
2024-02-08T08:04:44.048Z,4.20
2024-02-08T08:07:13.986Z,3.30
2024-02-08T08:09:42.717Z,2.70
2024-02-08T08:12:10.814Z,2.90
2024-02-08T08:14:41.597Z,2.90
2024-02-08T08:19:43.230Z,2.80
2024-02-08T08:22:21.027Z,3.40
2024-02-08T08:25:14.204Z,3.10
2024-02-08T08:27:52.468Z,3.30
2024-02-08T08:30:32.613Z,3.10
2024-02-08T08:33:02.254Z,2.60
2024-02-08T08:36:01.369Z,2.40
2024-02-08T08:38:30.261Z,3.10
2024-02-08T08:41:16.853Z,3.00
2024-02-08T08:43:55.165Z,3.00
2024-02-08T08:46:25.827Z,2.90
2024-02-08T08:51:32.184Z,3.50
2024-02-08T08:54:16.147Z,3.40
2024-02-08T08:56:44.732Z,3.70
2024-02-08T08:59:12.868Z,3.30
2024-02-08T09:01:42.431Z,3.50
2024-02-08T09:04:12.106Z,3.40
2024-02-08T09:06:44.346Z,3.60
2024-02-08T09:09:50.566Z,3.30
2024-02-08T09:12:29.603Z,3.70
2024-02-08T09:15:01.871Z,3.40
2024-02-08T09:17:50.348Z,3.80
2024-02-08T09:20:24.610Z,3.50
2024-02-08T09:22:54.810Z,2.90
2024-02-08T09:25:31.704Z,3.30
2024-02-08T09:28:25.934Z,3.40
2024-02-08T09:30:58.904Z,3.60
2024-02-08T09:33:46.084Z,3.60
2024-02-08T09:36:15.853Z,3.30
2024-02-08T09:38:46.225Z,2.40
2024-02-08T09:41:17.244Z,3.00
2024-02-08T09:43:46.876Z,3.10
2024-02-08T09:46:48.511Z,3.30
2024-02-08T09:49:19.831Z,2.70
2024-02-08T09:52:04.790Z,2.70
2024-02-08T09:54:33.894Z,3.10
2024-02-08T09:57:23.350Z,3.30
2024-02-08T10:00:11.987Z,2.90
2024-02-08T10:02:55.554Z,3.20
2024-02-08T10:05:44.490Z,3.40
2024-02-08T10:08:28.522Z,2.90
2024-02-08T10:11:15.482Z,3.00
2024-02-08T10:13:57.741Z,2.60
2024-02-08T10:16:43.980Z,3.00
2024-02-08T10:19:29.711Z,2.80
2024-02-08T10:22:03.627Z,2.60
2024-02-08T10:24:50.291Z,2.50
2024-02-08T10:27:22.504Z,2.20
2024-02-08T10:30:08.875Z,2.40
2024-02-08T10:32:38.679Z,2.50
2024-02-08T10:35:21.757Z,2.50
2024-02-08T10:38:09.156Z,2.50
2024-02-08T10:40:40.474Z,2.60
2024-02-08T10:43:19.272Z,2.30
2024-02-08T10:45:54.777Z,2.20
2024-02-08T10:48:30.477Z,2.70
2024-02-08T10:51:03.809Z,2.70
2024-02-08T10:53:44.934Z,2.70
2024-02-08T10:56:19.269Z,2.70
2024-02-08T10:59:11.208Z,2.60
2024-02-08T11:01:52.549Z,2.50
2024-02-08T11:04:31.795Z,2.60
2024-02-08T11:07:23.677Z,2.90
2024-02-08T11:09:53.797Z,2.40
2024-02-08T11:12:31.853Z,2.60
2024-02-08T11:15:40.003Z,2.50
2024-02-08T11:18:30.593Z,2.70
2024-02-08T11:21:05.967Z,2.70
2024-02-08T11:23:47.494Z,2.30
2024-02-08T11:26:19.928Z,2.50
2024-02-08T11:28:55.969Z,2.20
2024-02-08T11:31:34.236Z,2.30
2024-02-08T11:34:16.748Z,2.10
2024-02-08T11:36:45.334Z,2.00
2024-02-08T11:39:31.042Z,1.90
2024-02-08T11:42:06.609Z,2.00
2024-02-08T11:44:38.709Z,2.00
2024-02-08T11:47:20.879Z,2.10
2024-02-08T11:49:56.009Z,2.10
2024-02-08T11:52:26.940Z,2.00
2024-02-08T11:55:01.285Z,1.80
2024-02-08T11:57:38.318Z,2.10
2024-02-08T12:00:17.220Z,1.80
2024-02-08T12:02:49.488Z,1.90
2024-02-08T12:05:22.401Z,2.40
2024-02-08T12:07:51.639Z,2.10
2024-02-08T12:10:23.580Z,1.90
2024-02-08T12:12:54.911Z,2.00
2024-02-08T12:15:23.221Z,1.90
2024-02-08T12:17:54.480Z,2.10
2024-02-08T12:20:24.894Z,2.10
2024-02-08T12:22:54.577Z,2.40
2024-02-08T12:25:22.741Z,2.40
2024-02-08T12:27:59.106Z,2.30
2024-02-08T12:30:35.044Z,2.80
2024-02-08T12:33:14.449Z,2.50
2024-02-08T12:35:43.442Z,2.60
2024-02-08T12:38:14.494Z,4.30
2024-02-08T12:40:45.590Z,4.10
2024-02-08T12:43:15.612Z,2.30
2024-02-08T12:45:43.877Z,2.60
2024-02-08T12:48:16.691Z,3.20
2024-02-08T12:50:45.322Z,2.50
2024-02-08T12:53:14.432Z,1.90
2024-02-08T12:55:43.356Z,1.80
2024-02-08T12:58:15.225Z,2.00
2024-02-08T13:00:46.944Z,1.90
2024-02-08T13:03:16.949Z,1.60
2024-02-08T13:05:46.854Z,2.50
2024-02-08T13:08:23.007Z,1.80
2024-02-08T13:10:58.352Z,1.60
2024-02-08T13:13:26.945Z,1.90
2024-02-08T13:16:02.537Z,1.80
2024-02-08T13:18:31.282Z,1.90
2024-02-08T13:21:00.387Z,2.10
2024-02-08T13:23:28.758Z,1.90
2024-02-08T13:25:58.948Z,2.10
2024-02-08T13:30:58.662Z,2.60
2024-02-08T13:35:58.239Z,2.30
2024-02-08T13:41:19.350Z,2.10
2024-02-08T13:43:48.990Z,2.00
2024-02-08T13:46:17.431Z,1.60
2024-02-08T13:48:45.666Z,2.20
2024-02-08T13:51:18.046Z,2.30
2024-02-08T13:53:46.943Z,2.20
2024-02-08T13:56:15.238Z,2.20
2024-02-08T13:58:43.779Z,2.40
2024-02-08T14:01:13.129Z,2.20
2024-02-08T14:03:41.643Z,2.30
2024-02-08T14:06:11.428Z,2.30
2024-02-08T14:08:44.541Z,2.30
2024-02-08T14:11:18.064Z,2.10
2024-02-08T14:13:51.165Z,2.00
2024-02-08T14:16:22.752Z,2.20
2024-02-08T14:18:51.946Z,2.00
2024-02-08T14:21:27.160Z,2.10
2024-02-08T14:24:02.771Z,2.00
2024-02-08T14:26:35.232Z,2.40
2024-02-08T14:29:05.689Z,1.80
2024-02-08T14:31:39.374Z,2.10
2024-02-08T14:34:11.224Z,2.20
2024-02-08T14:39:29.253Z,2.30
2024-02-08T14:42:00.226Z,2.20
2024-02-08T14:44:42.319Z,2.10
2024-02-08T14:47:23.410Z,2.50
2024-02-08T14:49:57.072Z,2.20
2024-02-08T14:52:31.013Z,2.20
2024-02-08T14:55:25.995Z,2.40
2024-02-08T14:58:00.992Z,2.70
2024-02-08T15:00:32.710Z,2.70
2024-02-08T15:03:10.393Z,2.80
2024-02-08T15:05:50.866Z,2.80
2024-02-08T15:08:39.898Z,3.10
2024-02-08T15:11:11.145Z,2.80
2024-02-08T15:13:47.943Z,2.80
2024-02-08T15:16:32.193Z,2.60
2024-02-08T15:19:01.085Z,3.00
2024-02-08T15:21:38.210Z,2.60
2024-02-08T15:24:09.292Z,3.30
2024-02-08T15:26:39.250Z,2.90
2024-02-08T15:29:11.049Z,3.10
2024-02-08T15:31:48.882Z,2.90
2024-02-08T15:34:18.186Z,3.40
2024-02-08T15:37:13.752Z,3.60
2024-02-08T15:39:42.089Z,3.70
2024-02-08T15:42:19.824Z,4.00
2024-02-08T15:44:54.898Z,3.20
2024-02-08T15:47:23.220Z,3.40
2024-02-08T15:49:57.829Z,3.80
2024-02-08T15:52:30.692Z,3.80
2024-02-08T15:55:00.624Z,3.20
2024-02-08T15:57:34.593Z,3.30
2024-02-08T16:00:21.628Z,3.60
2024-02-08T16:02:53.112Z,3.10
2024-02-08T16:05:23.607Z,3.30
2024-02-08T16:07:58.952Z,3.70
2024-02-08T16:10:33.297Z,3.40
2024-02-08T16:13:07.888Z,3.80
2024-02-08T16:15:57.704Z,3.70
2024-02-08T16:18:27.342Z,4.20
2024-02-08T16:20:56.673Z,3.90
2024-02-08T16:23:28.541Z,4.20
2024-02-08T16:26:15.511Z,3.80
2024-02-08T16:28:52.241Z,5.40
2024-02-08T16:31:26.388Z,4.90
2024-02-08T16:33:54.928Z,5.50
2024-02-08T16:36:30.870Z,6.00
2024-02-08T16:39:09.291Z,5.70
2024-02-08T16:41:49.949Z,5.00
2024-02-08T16:44:23.660Z,5.70
2024-02-08T16:46:56.956Z,5.70
2024-02-08T16:49:32.065Z,5.40
2024-02-08T16:52:05.990Z,5.50
2024-02-08T16:54:44.040Z,5.90
2024-02-08T16:57:16.327Z,5.00
2024-02-08T16:59:50.230Z,4.90
2024-02-08T17:02:41.206Z,4.30
2024-02-08T17:05:18.426Z,4.30
2024-02-08T17:07:47.256Z,4.10
2024-02-08T17:10:38.003Z,4.40
2024-02-08T17:13:17.060Z,4.60
2024-02-08T17:16:03.587Z,4.40
2024-02-08T17:18:45.890Z,4.20
2024-02-08T17:21:37.904Z,4.20
2024-02-08T17:24:09.918Z,4.50
2024-02-08T17:26:38.126Z,4.40
2024-02-08T17:29:20.829Z,4.40
2024-02-08T17:31:49.885Z,5.20
2024-02-08T17:34:23.710Z,5.30
2024-02-08T17:36:55.887Z,4.10
2024-02-08T17:39:41.563Z,3.70
2024-02-08T17:42:11.403Z,4.30
2024-02-08T17:44:41.565Z,4.00
2024-02-08T17:47:10.510Z,4.60
2024-02-08T17:49:38.924Z,4.00
2024-02-08T17:52:08.217Z,3.60
2024-02-08T17:54:47.137Z,3.50
2024-02-08T17:57:24.643Z,4.00
2024-02-08T18:00:00.964Z,4.20
2024-02-08T18:02:30.404Z,4.10
2024-02-08T18:05:10.529Z,3.90
2024-02-08T18:07:38.961Z,4.80
2024-02-08T18:10:21.802Z,4.60
2024-02-08T18:12:57.337Z,4.90
2024-02-08T18:15:27.126Z,4.90
2024-02-08T18:17:57.095Z,4.80
2024-02-08T18:20:31.514Z,5.10
2024-02-08T18:23:06.947Z,5.00
2024-02-08T18:25:37.631Z,5.00
2024-02-08T18:28:11.017Z,5.60
2024-02-08T18:30:39.542Z,5.80
2024-02-08T18:33:10.183Z,6.30
2024-02-08T18:35:38.707Z,6.60
2024-02-08T18:38:09.742Z,7.10
2024-02-08T18:40:39.620Z,6.40
2024-02-08T18:43:08.338Z,6.50
2024-02-08T18:45:38.882Z,6.20
2024-02-08T18:50:44.504Z,5.50
2024-02-08T18:53:14.238Z,6.40
2024-02-08T18:55:46.835Z,6.40
2024-02-08T18:58:19.478Z,6.00
2024-02-08T19:00:51.251Z,5.60
2024-02-08T19:03:21.977Z,5.20
2024-02-08T19:05:51.327Z,5.50
2024-02-08T19:08:23.113Z,4.90
2024-02-08T19:11:03.297Z,5.10
2024-02-08T19:13:33.371Z,5.80
2024-02-08T19:16:13.696Z,5.30
2024-02-08T19:18:48.644Z,5.70
2024-02-08T19:21:29.735Z,6.70
2024-02-08T19:24:03.522Z,6.90
2024-02-08T19:26:33.840Z,6.80
2024-02-08T19:29:07.740Z,6.60
2024-02-08T19:31:43.386Z,6.20
2024-02-08T19:34:19.352Z,6.70
2024-02-08T19:36:53.502Z,6.30
2024-02-08T19:39:28.071Z,6.10
2024-02-08T19:41:56.863Z,5.70
2024-02-08T19:44:26.572Z,6.10
2024-02-08T19:47:07.790Z,5.90
2024-02-08T19:49:40.841Z,6.40
2024-02-08T19:52:16.656Z,5.70
2024-02-08T19:54:51.243Z,5.60
2024-02-08T19:57:22.354Z,6.10
2024-02-08T20:02:28.785Z,6.90
2024-02-08T20:05:02.736Z,6.80
2024-02-08T20:07:33.271Z,6.70
2024-02-08T20:10:03.040Z,6.30
2024-02-08T20:12:34.295Z,7.40
2024-02-08T20:15:17.465Z,7.60
2024-02-08T20:17:53.217Z,6.90
2024-02-08T20:20:23.481Z,6.30
2024-02-08T20:22:57.107Z,6.70
2024-02-08T20:25:28.553Z,6.80
2024-02-08T20:28:02.140Z,7.00
2024-02-08T20:30:31.233Z,8.10
2024-02-08T20:33:02.858Z,7.20
2024-02-08T20:35:31.153Z,7.80
2024-02-08T20:38:06.762Z,8.30
2024-02-08T20:40:37.297Z,8.60
2024-02-08T20:43:11.707Z,6.10
2024-02-08T20:45:42.341Z,7.00
2024-02-08T20:48:11.066Z,7.70
2024-02-08T20:50:41.878Z,7.10
2024-02-08T20:53:10.650Z,7.10
2024-02-08T20:55:41.635Z,7.00
2024-02-08T20:58:13.948Z,6.30
2024-02-08T21:00:46.394Z,7.80
2024-02-08T21:03:16.937Z,7.40
2024-02-08T21:05:50.262Z,7.20
2024-02-08T21:08:18.563Z,7.40
2024-02-08T21:10:49.721Z,8.00
2024-02-08T21:13:18.861Z,8.20
2024-02-08T21:15:49.848Z,7.90
2024-02-08T21:18:21.951Z,7.70
2024-02-08T21:20:56.591Z,7.70
2024-02-08T21:23:25.137Z,8.00
2024-02-08T21:25:54.738Z,8.30
2024-02-08T21:28:27.281Z,7.80
2024-02-08T21:30:58.168Z,7.70
2024-02-08T21:33:32.440Z,8.80
2024-02-08T21:36:05.450Z,8.10
2024-02-08T21:38:36.737Z,7.70
2024-02-08T21:41:05.125Z,8.30
2024-02-08T21:43:35.906Z,8.40
2024-02-08T21:46:05.210Z,7.90
2024-02-08T21:48:34.150Z,7.60
2024-02-08T21:51:02.441Z,8.00
2024-02-08T21:53:30.547Z,7.80
2024-02-08T21:55:58.681Z,7.60
2024-02-08T21:58:26.817Z,6.80
2024-02-08T22:03:40.441Z,7.60
2024-02-08T22:06:08.674Z,7.70
2024-02-08T22:08:37.761Z,7.90
2024-02-08T22:11:09.300Z,8.30
2024-02-08T22:13:37.511Z,7.60
2024-02-08T22:16:09.402Z,8.20
2024-02-08T22:18:37.754Z,7.50
2024-02-08T22:21:07.553Z,8.10
2024-02-08T22:23:37.977Z,7.50
2024-02-08T22:26:08.217Z,12.00
2024-02-08T22:28:40.541Z,12.40
2024-02-08T22:31:12.435Z,10.50
2024-02-08T22:33:40.786Z,10.80
2024-02-08T22:36:10.952Z,10.10
2024-02-08T22:38:39.204Z,10.60
2024-02-08T22:41:07.271Z,11.00
2024-02-08T22:43:39.922Z,11.40
2024-02-08T22:46:09.491Z,11.00
2024-02-08T22:48:37.586Z,11.80
2024-02-08T22:51:07.562Z,10.50
2024-02-08T22:53:36.554Z,9.90
2024-02-08T22:56:05.082Z,10.40
2024-02-08T22:58:33.094Z,9.40
2024-02-08T23:01:24.135Z,10.10
2024-02-08T23:03:52.978Z,10.30
2024-02-08T23:06:21.288Z,9.80
2024-02-08T23:08:49.758Z,10.40
2024-02-08T23:11:17.770Z,9.80
2024-02-08T23:13:48.283Z,9.50
2024-02-08T23:18:49.986Z,9.90
2024-02-08T23:21:26.043Z,10.20
2024-02-08T23:23:54.988Z,10.10
2024-02-08T23:26:23.481Z,10.60
2024-02-08T23:28:51.666Z,10.70
2024-02-08T23:31:20.184Z,9.20
2024-02-08T23:33:48.703Z,10.40
2024-02-08T23:36:20.913Z,9.90
2024-02-08T23:38:49.075Z,10.20
2024-02-08T23:41:18.819Z,10.20
2024-02-08T23:43:46.994Z,10.30
2024-02-08T23:46:17.567Z,9.80
2024-02-08T23:48:52.530Z,8.50
2024-02-08T23:51:23.949Z,9.60
2024-02-08T23:53:52.860Z,11.00
2024-02-08T23:56:25.154Z,9.70
2024-02-08T23:58:53.767Z,9.90
